Time;durP1;ratioP1;P1;durP2;ratioP2;P2;SDS_P1;SDS_P2;PMS_P1;PMS_P2;Temp;Humidity;BMP_temperature;BMP_pressure;BME280_temperature;BME280_humidity;BME280_pressure;Samples;Min_cycle;Max_cycle;Signal;HPM_P1;HPM_P2
2022/01/07 00:01:02;;;;;;;15.85;7.43;;;4.00;99.90;;;;;;5005324;28;20040;-73
2022/01/07 00:03:29;;;;;;;20.45;7.40;;;4.00;99.90;;;;;;4991513;28;20045;-73
2022/01/07 00:05:55;;;;;;;20.45;7.70;;;4.00;99.90;;;;;;4988457;28;20404;-73
2022/01/07 00:08:21;;;;;;;22.98;7.50;;;3.90;99.90;;;;;;4990420;28;20400;-73
2022/01/07 00:10:47;;;;;;;19.83;7.80;;;4.00;99.90;;;;;;4992193;28;20048;-73
2022/01/07 00:13:13;;;;;;;21.60;8.20;;;3.90;99.90;;;;;;4980873;28;20137;-73
2022/01/07 00:15:39;;;;;;;17.33;7.35;;;4.00;99.90;;;;;;5009417;28;20033;-73
2022/01/07 00:18:06;;;;;;;18.48;7.30;;;4.00;99.90;;;;;;4988313;28;20515;-73
2022/01/07 00:20:32;;;;;;;19.67;7.43;;;4.00;99.90;;;;;;4982394;28;20089;-73
2022/01/07 00:22:58;;;;;;;23.05;7.15;;;3.90;99.90;;;;;;5006710;28;20042;-73
2022/01/07 00:25:24;;;;;;;16.40;6.55;;;3.90;99.90;;;;;;4977716;28;20121;-73
2022/01/07 00:27:51;;;;;;;19.95;7.10;;;3.90;99.90;;;;;;4982873;28;20057;-73
2022/01/07 00:30:18;;;;;;;20.23;7.00;;;4.00;99.90;;;;;;4982328;28;20381;-72
2022/01/07 00:32:44;;;;;;;15.95;7.03;;;4.00;99.90;;;;;;4981378;28;20042;-72
2022/01/07 00:35:11;;;;;;;19.30;7.40;;;4.00;99.90;;;;;;4991082;28;20395;-72
2022/01/07 00:37:37;;;;;;;18.73;7.03;;;4.10;99.90;;;;;;4987880;28;20408;-73
2022/01/07 00:40:09;;;;;;;17.60;6.80;;;4.00;99.90;;;;;;4988823;28;20045;-73
2022/01/07 00:42:35;;;;;;;16.15;6.50;;;4.00;99.90;;;;;;4980612;28;20038;-73
2022/01/07 00:45:00;;;;;;;12.88;6.72;;;4.00;99.90;;;;;;4993995;28;20404;-72
2022/01/07 00:47:26;;;;;;;13.73;5.82;;;3.90;99.90;;;;;;5008991;28;20030;-73
2022/01/07 00:49:52;;;;;;;16.85;6.43;;;4.00;99.90;;;;;;4983984;28;20122;-73
2022/01/07 00:52:17;;;;;;;20.13;6.93;;;3.90;99.90;;;;;;4989028;28;20476;-73
2022/01/07 00:54:43;;;;;;;15.07;5.63;;;3.90;99.90;;;;;;4990400;28;20045;-73
2022/01/07 00:57:09;;;;;;;18.48;6.47;;;3.90;99.90;;;;;;5008978;28;20030;-73
2022/01/07 00:59:35;;;;;;;15.95;6.43;;;3.90;99.90;;;;;;5004635;28;20038;-73
2022/01/07 01:02:00;;;;;;;19.95;6.80;;;3.80;99.90;;;;;;4989830;28;20295;-73
2022/01/07 01:04:26;;;;;;;16.55;6.90;;;3.70;99.90;;;;;;5001444;28;20060;-73
2022/01/07 01:06:52;;;;;;;15.27;7.40;;;3.70;99.90;;;;;;4983947;28;20087;-73
2022/01/07 01:09:17;;;;;;;19.58;7.07;;;3.60;99.90;;;;;;4986169;28;20547;-72
2022/01/07 01:11:43;;;;;;;13.63;6.63;;;3.60;99.90;;;;;;4989379;28;20499;-73
2022/01/07 01:14:09;;;;;;;21.45;7.15;;;3.50;99.90;;;;;;4986106;28;20071;-73
2022/01/07 01:16:35;;;;;;;25.58;7.82;;;3.50;99.90;;;;;;4994561;28;20513;-73
2022/01/07 01:19:03;;;;;;;15.48;7.15;;;3.40;99.90;;;;;;5010584;28;20033;-73
2022/01/07 01:21:28;;;;;;;16.27;7.25;;;3.50;99.90;;;;;;5007117;28;20088;-73
2022/01/07 01:23:54;;;;;;;17.77;6.93;;;3.50;99.90;;;;;;5002356;28;20555;-73
2022/01/07 01:26:20;;;;;;;17.80;8.43;;;3.50;99.90;;;;;;4989839;28;20496;-73
2022/01/07 01:28:46;;;;;;;18.17;7.60;;;3.40;99.90;;;;;;5000662;28;20034;-73
2022/01/07 01:31:15;;;;;;;17.85;7.95;;;3.50;99.90;;;;;;4993209;28;20049;-73
2022/01/07 01:33:42;;;;;;;22.17;8.20;;;3.40;99.90;;;;;;4990860;28;20121;-73
2022/01/07 01:36:10;;;;;;;19.00;8.20;;;3.50;99.90;;;;;;5013573;28;20038;-73
2022/01/07 01:38:37;;;;;;;20.55;8.00;;;3.40;99.90;;;;;;5009207;28;20034;-72
2022/01/07 01:41:03;;;;;;;22.95;8.45;;;3.30;99.90;;;;;;4988513;28;20038;-72
2022/01/07 01:43:29;;;;;;;21.00;8.18;;;3.30;99.90;;;;;;4997124;28;20121;-72
2022/01/07 01:45:55;;;;;;;18.73;8.05;;;3.30;99.90;;;;;;5012221;28;20138;-72
2022/01/07 01:48:20;;;;;;;18.50;8.48;;;3.30;99.90;;;;;;4994940;28;20084;-72
2022/01/07 01:50:50;;;;;;;20.20;9.27;;;3.20;99.90;;;;;;4993189;28;20395;-72
2022/01/07 01:53:17;;;;;;;23.77;9.05;;;3.20;99.90;;;;;;4979369;28;20128;-72
2022/01/07 01:55:44;;;;;;;17.88;9.13;;;3.20;99.90;;;;;;4994141;28;20037;-72
2022/01/07 01:58:11;;;;;;;27.45;9.90;;;3.20;99.90;;;;;;4983857;28;20117;-72
2022/01/07 02:00:37;;;;;;;23.73;10.07;;;3.20;99.90;;;;;;5007458;28;20034;-72
2022/01/07 02:03:02;;;;;;;23.70;10.07;;;3.20;99.90;;;;;;4995358;28;20052;-72
2022/01/07 02:05:28;;;;;;;22.58;10.70;;;3.20;99.90;;;;;;5025534;28;20046;-72
2022/01/07 02:07:54;;;;;;;23.15;10.70;;;3.10;99.90;;;;;;4979885;28;20524;-72
2022/01/07 02:10:20;;;;;;;20.52;10.88;;;3.10;99.90;;;;;;4979881;28;20042;-72
2022/01/07 02:12:47;;;;;;;21.55;10.18;;;3.10;99.90;;;;;;4988636;28;20511;-72
2022/01/07 02:15:15;;;;;;;22.70;10.68;;;3.20;99.90;;;;;;4995102;28;20038;-72
2022/01/07 02:17:42;;;;;;;25.70;11.88;;;3.10;99.90;;;;;;5012091;28;20034;-73
2022/01/07 02:20:09;;;;;;;26.52;11.07;;;3.10;99.90;;;;;;4988376;28;20031;-73
2022/01/07 02:22:35;;;;;;;22.52;11.10;;;3.10;99.90;;;;;;5004733;28;20062;-73
2022/01/07 02:25:01;;;;;;;20.73;10.93;;;3.10;99.90;;;;;;4994676;28;20052;-73
2022/01/07 02:27:28;;;;;;;21.08;10.57;;;3.20;99.90;;;;;;5012193;28;20558;-73
2022/01/07 02:29:54;;;;;;;25.58;11.75;;;3.20;99.90;;;;;;4998374;28;20061;-73
2022/01/07 02:32:21;;;;;;;26.30;11.75;;;3.20;99.90;;;;;;5009122;28;20048;-73
2022/01/07 02:34:48;;;;;;;29.10;11.95;;;3.20;99.90;;;;;;4988529;28;20104;-73
2022/01/07 02:37:15;;;;;;;24.58;12.00;;;3.20;99.90;;;;;;4968364;28;20104;-73
2022/01/07 02:39:41;;;;;;;24.33;12.13;;;3.10;99.90;;;;;;4976383;28;20065;-73
2022/01/07 02:42:07;;;;;;;24.45;12.05;;;3.10;99.90;;;;;;5005373;28;20137;-73
2022/01/07 02:44:33;;;;;;;25.85;12.88;;;3.20;99.90;;;;;;4983739;28;20513;-73
2022/01/07 02:47:00;;;;;;;16.35;10.25;;;3.10;99.90;;;;;;5005773;28;20392;-73
2022/01/07 02:49:26;;;;;;;24.42;12.27;;;3.10;99.90;;;;;;4993760;28;20376;-73
2022/01/07 02:51:51;;;;;;;25.13;12.75;;;3.10;99.90;;;;;;4985348;28;20049;-73
2022/01/07 02:54:17;;;;;;;27.80;12.73;;;3.10;99.90;;;;;;5004219;28;20042;-73
2022/01/07 02:56:43;;;;;;;24.05;12.93;;;3.10;99.90;;;;;;5009038;28;20053;-73
2022/01/07 02:59:09;;;;;;;23.45;12.75;;;3.00;99.90;;;;;;4990696;28;20061;-73
2022/01/07 03:01:37;;;;;;;22.10;12.18;;;3.10;99.90;;;;;;5014055;28;20440;-73
2022/01/07 03:04:03;;;;;;;21.77;12.68;;;3.10;99.90;;;;;;5002759;28;20397;-73
2022/01/07 03:06:30;;;;;;;23.58;12.52;;;3.10;99.90;;;;;;5007218;28;20124;-73
2022/01/07 03:08:56;;;;;;;25.65;12.65;;;3.20;99.90;;;;;;5003968;28;20433;-73
2022/01/07 03:11:23;;;;;;;25.13;13.25;;;3.10;99.90;;;;;;5006887;28;20493;-73
2022/01/07 03:13:48;;;;;;;27.10;14.23;;;3.20;99.90;;;;;;5001419;28;20446;-73
2022/01/07 03:16:14;;;;;;;24.27;12.68;;;3.10;99.90;;;;;;4998827;28;20120;-73
2022/01/07 03:18:40;;;;;;;24.35;12.93;;;3.10;99.90;;;;;;5008852;28;20080;-73
2022/01/07 03:21:06;;;;;;;21.77;13.40;;;3.20;99.90;;;;;;5008810;28;20044;-72
2022/01/07 03:23:35;;;;;;;25.00;13.57;;;3.10;99.90;;;;;;5009374;28;20036;-72
2022/01/07 03:26:02;;;;;;;20.75;13.15;;;3.20;99.90;;;;;;4995014;28;20556;-72
2022/01/07 03:28:28;;;;;;;21.55;12.32;;;3.20;99.90;;;;;;4983787;28;20050;-72
2022/01/07 03:30:54;;;;;;;22.25;13.73;;;3.20;99.90;;;;;;4998551;28;20050;-72
2022/01/07 03:33:19;;;;;;;20.00;13.07;;;3.20;99.90;;;;;;4992840;28;20046;-72
2022/01/07 03:35:46;;;;;;;23.17;13.57;;;3.20;99.90;;;;;;4996837;28;20042;-72
2022/01/07 03:38:12;;;;;;;21.98;12.43;;;3.20;99.90;;;;;;5005683;28;20045;-72
2022/01/07 03:40:38;;;;;;;22.25;12.13;;;3.20;99.90;;;;;;4994447;28;20048;-72
2022/01/07 03:43:04;;;;;;;24.55;14.00;;;3.30;99.90;;;;;;4994655;28;20049;-72
2022/01/07 03:45:30;;;;;;;21.45;13.43;;;3.30;99.90;;;;;;4980219;28;20054;-72
2022/01/07 03:47:55;;;;;;;25.52;13.13;;;3.30;99.90;;;;;;4988083;28;20107;-72
2022/01/07 03:50:25;;;;;;;18.27;12.30;;;3.30;99.90;;;;;;4981645;28;20044;-73
2022/01/07 03:52:51;;;;;;;21.20;12.85;;;3.30;99.90;;;;;;4999934;28;20042;-73
2022/01/07 03:55:19;;;;;;;21.00;12.95;;;3.30;99.90;;;;;;4990816;28;20484;-73
2022/01/07 03:57:45;;;;;;;23.42;13.15;;;3.30;99.90;;;;;;4991456;28;20048;-73
2022/01/07 04:00:17;;;;;;;22.85;13.43;;;3.30;99.90;;;;;;4985945;28;20496;-73
2022/01/07 04:02:44;;;;;;;20.38;13.00;;;3.30;99.90;;;;;;5006305;28;20033;-73
2022/01/07 04:05:10;;;;;;;20.38;12.20;;;3.30;99.90;;;;;;4989420;28;20038;-73
2022/01/07 04:07:36;;;;;;;24.13;13.35;;;3.30;99.90;;;;;;4986675;28;20040;-73
2022/01/07 04:10:04;;;;;;;23.23;12.18;;;3.30;99.90;;;;;;4980045;28;20046;-73
2022/01/07 04:12:30;;;;;;;18.85;11.70;;;3.30;99.90;;;;;;4990892;28;20218;-72
2022/01/07 04:15:08;;;;;;;21.95;12.70;;;3.30;99.90;;;;;;4991835;28;20045;-72
2022/01/07 04:17:35;;;;;;;25.73;11.88;;;3.30;99.90;;;;;;5007729;28;20499;-72
2022/01/07 04:20:03;;;;;;;20.52;12.07;;;3.30;99.90;;;;;;4993076;28;20599;-72
2022/01/07 04:22:28;;;;;;;18.42;11.82;;;3.30;99.90;;;;;;4994251;28;20523;-72
2022/01/07 04:24:54;;;;;;;20.27;11.38;;;3.30;99.90;;;;;;4993933;28;20038;-72
2022/01/07 04:27:20;;;;;;;20.83;13.05;;;3.30;99.90;;;;;;5004383;28;21517;-72
2022/01/07 04:29:45;;;;;;;18.88;11.65;;;3.30;99.90;;;;;;4983850;28;20542;-72
2022/01/07 04:32:11;;;;;;;20.95;13.20;;;3.30;99.90;;;;;;4992931;28;20045;-72
2022/01/07 04:34:37;;;;;;;16.65;11.07;;;3.30;99.90;;;;;;4986926;28;20046;-72
2022/01/07 04:37:03;;;;;;;22.00;11.43;;;3.30;99.90;;;;;;4982446;28;20491;-72
2022/01/07 04:39:29;;;;;;;15.63;11.50;;;3.30;99.90;;;;;;5004324;28;20077;-72
2022/01/07 04:41:56;;;;;;;17.40;12.10;;;3.40;99.90;;;;;;5011331;28;20049;-72
2022/01/07 04:44:23;;;;;;;14.50;10.98;;;3.40;99.90;;;;;;4987184;28;20042;-73
2022/01/07 04:46:49;;;;;;;17.55;10.35;;;3.40;99.90;;;;;;5011494;28;20369;-73
2022/01/07 04:49:15;;;;;;;23.88;11.02;;;3.40;99.90;;;;;;4997136;28;20040;-73
2022/01/07 04:51:40;;;;;;;18.23;9.23;;;3.30;99.90;;;;;;4996613;28;20081;-73
2022/01/07 04:54:06;;;;;;;15.25;10.25;;;3.40;99.90;;;;;;5006460;28;20046;-73
2022/01/07 04:56:32;;;;;;;18.75;10.60;;;3.40;99.90;;;;;;4992803;28;20045;-73
2022/01/07 04:58:57;;;;;;;16.20;10.60;;;3.40;99.90;;;;;;4990069;28;20033;-73
2022/01/07 05:01:23;;;;;;;15.60;10.68;;;3.40;99.90;;;;;;4990618;28;20053;-73
2022/01/07 05:03:49;;;;;;;19.95;11.07;;;3.40;99.90;;;;;;4999325;28;20042;-73
2022/01/07 05:08:59;;;;;;;16.13;10.38;;;3.30;99.90;;;;;;5010904;28;20050;-73
2022/01/07 05:11:24;;;;;;;14.45;10.20;;;3.30;99.90;;;;;;5011846;28;20558;-72
2022/01/07 05:13:50;;;;;;;14.38;10.15;;;3.40;99.90;;;;;;5000267;28;20042;-72
2022/01/07 05:16:15;;;;;;;12.52;10.18;;;3.40;99.90;;;;;;5012111;28;20500;-72
2022/01/07 05:18:41;;;;;;;13.52;9.73;;;3.40;99.90;;;;;;4996034;28;20038;-73
2022/01/07 05:21:07;;;;;;;13.43;9.60;;;3.30;99.90;;;;;;4968536;28;20034;-72
2022/01/07 05:23:33;;;;;;;15.50;9.80;;;3.40;99.90;;;;;;5004811;28;20045;-73
2022/01/07 05:25:58;;;;;;;15.65;9.68;;;3.40;99.90;;;;;;4995910;28;20555;-73
2022/01/07 05:28:24;;;;;;;11.50;9.50;;;3.40;99.90;;;;;;5011950;28;20411;-72
2022/01/07 05:30:50;;;;;;;17.92;9.38;;;3.40;99.90;;;;;;4990565;28;20545;-73
2022/01/07 05:33:15;;;;;;;18.80;9.77;;;3.50;99.90;;;;;;5007154;28;20523;-73
2022/01/07 05:35:41;;;;;;;11.77;8.93;;;3.50;99.90;;;;;;4994178;28;20034;-73
2022/01/07 05:38:07;;;;;;;15.02;9.38;;;3.40;99.90;;;;;;4965868;28;20496;-73
2022/01/07 05:40:32;;;;;;;17.73;9.52;;;3.40;99.90;;;;;;4992898;28;20543;-72
2022/01/07 05:42:58;;;;;;;16.63;8.88;;;3.40;99.90;;;;;;5004838;28;20488;-73
2022/01/07 05:45:24;;;;;;;13.70;10.00;;;3.40;99.90;;;;;;4982968;28;20496;-73
2022/01/07 05:47:49;;;;;;;14.48;9.57;;;3.40;99.90;;;;;;4974334;28;20507;-73
2022/01/07 05:50:15;;;;;;;16.27;9.57;;;3.40;99.90;;;;;;5012352;28;20554;-73
2022/01/07 05:52:40;;;;;;;15.52;9.60;;;3.40;99.90;;;;;;5010245;28;20057;-73
2022/01/07 05:55:24;;;;;;;14.52;8.93;;;3.40;99.90;;;;;;5036086;23;20041;-75
2022/01/07 05:57:55;;;;;;;12.57;8.98;;;3.40;99.90;;;;;;4988031;28;20132;-76
2022/01/07 06:00:32;;;;;;;14.60;8.95;;;3.40;99.90;;;;;;4994646;28;20399;-76
2022/01/07 06:03:19;;;;;;;12.77;8.15;;;3.50;99.90;;;;;;4988719;28;20432;-76
2022/01/07 06:05:45;;;;;;;12.68;8.30;;;3.50;99.90;;;;;;4999066;28;20084;-76
2022/01/07 06:08:13;;;;;;;13.63;8.30;;;3.50;99.90;;;;;;4976524;28;20084;-76
2022/01/07 06:10:39;;;;;;;13.02;8.80;;;3.50;99.90;;;;;;4992127;28;20462;-76
2022/01/07 06:13:04;;;;;;;10.38;7.75;;;3.50;99.90;;;;;;4994698;28;20069;-76
2022/01/07 06:15:30;;;;;;;14.52;8.60;;;3.50;99.90;;;;;;4991269;28;20041;-76
2022/01/07 06:17:59;;;;;;;11.93;8.77;;;3.60;99.90;;;;;;4987863;28;20096;-76
2022/01/07 06:20:25;;;;;;;13.00;8.38;;;3.60;99.90;;;;;;4970064;28;20377;-76
2022/01/07 06:22:51;;;;;;;12.93;8.98;;;3.60;99.90;;;;;;4992254;28;20045;-76
2022/01/07 06:25:18;;;;;;;10.80;8.25;;;3.50;99.90;;;;;;4991582;28;20052;-76
2022/01/07 06:27:44;;;;;;;10.27;8.15;;;3.50;99.90;;;;;;4993643;28;20033;-76
2022/01/07 06:30:10;;;;;;;10.75;8.50;;;3.60;99.90;;;;;;4994686;28;20467;-76
2022/01/07 06:32:36;;;;;;;11.07;8.60;;;3.60;99.90;;;;;;4990060;28;20121;-76
2022/01/07 06:35:02;;;;;;;11.35;8.50;;;3.60;99.90;;;;;;4994013;28;20125;-76
2022/01/07 06:37:30;;;;;;;12.30;8.93;;;3.60;99.90;;;;;;4994242;28;20042;-76
2022/01/07 06:40:00;;;;;;;10.60;8.70;;;3.60;99.90;;;;;;4992947;28;20038;-76
2022/01/07 06:42:28;;;;;;;10.68;8.68;;;3.60;99.90;;;;;;4978328;28;20119;-76
2022/01/07 06:44:54;;;;;;;11.52;8.25;;;3.70;99.90;;;;;;4993558;28;20073;-76
2022/01/07 06:47:19;;;;;;;11.90;9.18;;;3.70;99.90;;;;;;4993982;28;20045;-76
2022/01/07 06:49:45;;;;;;;13.02;9.30;;;3.70;99.90;;;;;;4995151;28;20050;-76
2022/01/07 06:52:11;;;;;;;11.13;9.40;;;3.60;99.90;;;;;;4994071;28;20069;-76
2022/01/07 06:54:36;;;;;;;11.45;8.38;;;3.70;99.90;;;;;;4990605;28;20088;-76
2022/01/07 06:57:02;;;;;;;10.75;8.25;;;3.70;99.90;;;;;;4992596;28;20124;-76
2022/01/07 06:59:28;;;;;;;12.30;9.75;;;3.70;99.90;;;;;;4992482;28;20587;-76
2022/01/07 07:01:54;;;;;;;12.23;9.32;;;3.60;99.90;;;;;;4978705;28;20037;-76
2022/01/07 07:04:19;;;;;;;11.52;9.27;;;3.60;99.90;;;;;;4993439;28;20041;-76
2022/01/07 07:06:45;;;;;;;10.60;9.40;;;3.60;99.90;;;;;;4994535;28;20407;-76
2022/01/07 07:09:11;;;;;;;13.70;10.45;;;3.70;99.90;;;;;;4988742;28;20034;-76
2022/01/07 07:11:37;;;;;;;13.90;10.60;;;3.70;99.90;;;;;;4994490;28;20038;-76
2022/01/07 07:14:03;;;;;;;13.15;11.18;;;3.70;99.90;;;;;;4995099;28;20470;-76
2022/01/07 07:16:29;;;;;;;14.80;11.70;;;3.70;99.90;;;;;;4994016;28;20041;-76
2022/01/07 07:18:54;;;;;;;17.90;11.70;;;3.80;99.90;;;;;;4974730;28;20042;-76
2022/01/07 07:21:20;;;;;;;16.55;11.63;;;3.80;99.90;;;;;;4986267;28;20507;-76
2022/01/07 07:23:46;;;;;;;16.25;12.18;;;3.80;99.90;;;;;;4989865;28;20041;-76
2022/01/07 07:26:11;;;;;;;16.92;12.25;;;3.80;99.90;;;;;;4990143;28;20559;-76
2022/01/07 07:28:38;;;;;;;17.83;12.07;;;3.80;99.90;;;;;;4990500;28;20862;-76
2022/01/07 07:31:09;;;;;;;15.13;11.45;;;3.80;99.90;;;;;;4983537;28;20225;-76
2022/01/07 07:33:56;;;;;;;17.65;12.52;;;3.90;99.90;;;;;;4989361;28;20610;-76
2022/01/07 07:36:30;;;;;;;18.08;13.13;;;3.90;99.90;;;;;;4993191;28;20038;-76
2022/01/07 07:39:15;;;;;;;19.38;14.18;;;3.90;99.90;;;;;;4990021;28;20038;-76
2022/01/07 07:41:42;;;;;;;21.60;15.65;;;3.80;99.90;;;;;;4987214;28;20080;-76
2022/01/07 07:44:08;;;;;;;22.60;16.50;;;3.90;99.90;;;;;;4990797;28;20038;-76
2022/01/07 07:46:36;;;;;;;22.52;16.20;;;3.80;99.90;;;;;;4960913;28;20029;-76
2022/01/07 07:49:03;;;;;;;20.13;15.50;;;3.80;99.90;;;;;;4987936;28;20429;-77
2022/01/07 07:51:30;;;;;;;20.92;15.50;;;3.90;99.90;;;;;;4994421;28;20045;-77
2022/01/07 07:53:56;;;;;;;22.45;16.95;;;3.90;99.90;;;;;;4990059;28;20061;-77
2022/01/07 07:56:23;;;;;;;23.05;16.60;;;3.90;99.90;;;;;;4992775;28;20034;-77
2022/01/07 07:58:49;;;;;;;21.92;16.98;;;3.90;99.90;;;;;;4983151;28;20034;-77
2022/01/07 08:01:17;;;;;;;27.05;17.65;;;3.90;99.90;;;;;;4998524;28;20044;-76
2022/01/07 08:03:44;;;;;;;23.20;17.35;;;3.90;99.90;;;;;;4987029;28;20042;-77
2022/01/07 08:06:10;;;;;;;25.27;18.63;;;4.00;99.90;;;;;;4990327;28;20313;-77
2022/01/07 08:08:35;;;;;;;25.02;18.48;;;4.00;99.90;;;;;;4985083;28;20046;-76
2022/01/07 08:11:04;;;;;;;27.50;18.80;;;4.10;99.90;;;;;;4986637;28;20038;-76
2022/01/07 08:13:30;;;;;;;25.50;18.35;;;4.10;99.90;;;;;;4992167;28;20462;-77
2022/01/07 08:15:58;;;;;;;32.17;20.20;;;4.10;99.90;;;;;;4988748;28;20041;-76
2022/01/07 08:18:29;;;;;;;31.80;20.13;;;4.10;99.90;;;;;;4989761;28;20214;-76
2022/01/07 08:20:57;;;;;;;31.08;19.75;;;4.20;99.90;;;;;;4993655;28;20060;-76
2022/01/07 08:23:23;;;;;;;34.05;19.48;;;4.20;99.90;;;;;;4987569;28;20140;-77
2022/01/07 08:25:49;;;;;;;28.70;18.90;;;4.20;99.90;;;;;;4985783;28;20137;-76
2022/01/07 08:28:16;;;;;;;30.23;21.35;;;4.30;99.90;;;;;;4991501;28;20092;-76
2022/01/07 08:31:22;;;;;;;33.97;20.65;;;4.30;99.90;;;;;;4990972;28;20064;-75
2022/01/07 08:36:33;;;;;;;28.75;22.15;;;4.30;99.90;;;;;;4991297;28;20064;-76
2022/01/07 08:38:59;;;;;;;38.67;23.80;;;4.40;99.90;;;;;;4986704;28;20099;-76
2022/01/07 08:41:30;;;;;;;31.00;22.85;;;4.50;99.90;;;;;;4995901;28;20037;-76
2022/01/07 08:43:56;;;;;;;31.58;21.25;;;4.50;99.90;;;;;;4965739;28;20503;-76
2022/01/07 08:46:22;;;;;;;28.52;21.95;;;4.50;99.90;;;;;;4994558;28;20073;-75
2022/01/07 08:48:48;;;;;;;34.25;23.30;;;4.50;99.90;;;;;;4995853;28;20428;-75
2022/01/07 08:51:14;;;;;;;40.25;23.73;;;4.60;99.90;;;;;;4992048;28;20042;-75
2022/01/07 08:53:40;;;;;;;32.53;22.42;;;4.60;99.90;;;;;;4989304;28;20497;-75
2022/01/07 08:56:06;;;;;;;35.45;23.65;;;4.70;99.90;;;;;;4996919;28;20480;-75
2022/01/07 08:58:33;;;;;;;32.47;23.85;;;4.70;99.90;;;;;;4987997;28;20057;-75
2022/01/07 09:00:59;;;;;;;34.97;24.02;;;4.70;99.90;;;;;;4986095;28;20042;-75
2022/01/07 09:03:25;;;;;;;36.25;23.92;;;4.70;99.90;;;;;;5000519;28;20045;-75
2022/01/07 09:09:28;;;;;;;30.77;23.80;;;4.80;99.90;;;;;;4724785;26;20059;-75
2022/01/07 09:47:26;;;;;;;33.35;21.90;;;5.30;99.90;;;;;;4771142;29;20050;-76
2022/01/07 09:49:57;;;;;;;32.50;22.35;;;5.30;99.90;;;;;;4820434;29;20047;-76
2022/01/07 09:53:18;;;;;;;;;;;;;;;;;;;;;
2022/01/07 10:01:53;;;;;;;32.75;22.88;;;5.30;99.90;;;;;;4926476;29;20048;-75
2022/01/07 10:05:49;;;;;;;37.58;22.85;;;5.10;99.90;;;;;;4878749;29;20044;-74
2022/01/07 10:10:01;;;;;;;;;;;;;;;;;;;;;
2022/01/07 10:13:00;;;;;;;39.15;23.88;;;5.20;99.90;;;;;;4859724;29;20480;-73
2022/01/07 10:15:28;;;;;;;37.95;24.50;;;5.20;99.90;;;;;;4853792;29;20049;-73
2022/01/07 10:18:04;;;;;;;36.85;24.10;;;5.20;99.90;;;;;;4880539;29;20064;-73
2022/01/07 10:20:55;;;;;;;39.75;24.67;;;5.20;99.90;;;;;;4905565;28;20050;-73
2022/01/07 10:23:26;;;;;;;41.70;23.42;;;5.10;99.90;;;;;;4973471;28;20034;-73
2022/01/07 10:25:57;;;;;;;37.00;23.40;;;5.10;99.90;;;;;;4973000;28;20509;-73
2022/01/07 10:28:32;;;;;;;28.38;21.75;;;5.10;99.90;;;;;;4968984;28;20042;-73
2022/01/07 10:31:27;;;;;;;32.80;20.40;;;5.10;99.90;;;;;;4971429;28;20047;-74
2022/01/07 10:34:45;;;;;;;;;;;;;;;;;;;;;
2022/01/07 10:42:05;;;;;;;13.57;4.45;;;5.10;99.90;;;;;;4828404;29;20042;-74
2022/01/07 10:44:31;;;;;;;10.73;5.75;;;4.90;99.90;;;;;;4894380;29;20052;-73
2022/01/07 10:54:48;;;;;;;17.10;11.48;;;4.90;99.90;;;;;;4922394;29;20103;-73
2022/01/07 10:59:02;;;;;;;18.98;12.30;;;5.00;99.90;;;;;;4809031;29;20215;-73
2022/01/07 11:03:04;;;;;;;24.02;13.52;;;5.10;99.90;;;;;;4757140;29;20058;-76
2022/01/07 11:26:38;;;;;;;;;;;;;;;;;;;;;
2022/01/07 11:30:15;;;;;;;28.67;16.23;;;5.50;99.90;;;;;;4818665;29;20103;-74
2022/01/07 11:53:05;;;;;;;;;;;;;;;;;;;;;
2022/01/07 11:56:32;;;;;;;8.77;3.67;;;5.30;99.90;;;;;;4992722;23;20047;-75
2022/01/07 11:59:24;;;;;;;6.50;2.72;;;5.40;99.90;;;;;;5003353;28;20045;-75
2022/01/07 12:02:41;;;;;;;6.87;3.07;;;5.30;99.90;;;;;;4992522;28;20042;-75
2022/01/07 12:06:15;;;;;;;;;;;;;;;;;;;;;
2022/01/07 12:10:19;;;;;;;4.43;1.52;;;5.30;99.90;;;;;;4927086;29;20036;-75
2022/01/07 12:17:36;;;;;;;7.75;1.77;;;5.30;99.90;;;;;;4840469;29;20057;-75
2022/01/07 12:23:30;;;;;;;6.45;1.70;;;5.30;99.90;;;;;;4844976;29;20053;-75
2022/01/07 12:27:11;;;;;;;;;;;;;;;;;;;;;
2022/01/07 12:37:54;;;;;;;6.78;1.30;;;5.00;99.90;;;;;;5201046;23;20050;-74
2022/01/07 12:41:01;;;;;;;6.25;1.50;;;5.10;99.90;;;;;;4972524;28;20085;-74
2022/01/07 12:43:40;;;;;;;7.00;1.30;;;5.00;99.90;;;;;;4965999;28;20057;-74
2022/01/07 12:46:24;;;;;;;6.50;1.45;;;5.20;99.90;;;;;;4968795;28;20051;-74
2022/01/07 12:49:34;;;;;;;8.02;1.55;;;5.20;99.90;;;;;;4963563;28;20486;-74
2022/01/07 12:52:30;;;;;;;6.28;1.23;;;5.20;99.90;;;;;;4965572;28;20062;-74
2022/01/07 12:55:01;;;;;;;6.43;1.58;;;5.30;99.90;;;;;;4984230;28;20046;-74
2022/01/07 12:57:33;;;;;;;6.03;1.60;;;5.40;99.90;;;;;;4964722;28;20042;-74
2022/01/07 13:00:08;;;;;;;6.35;1.77;;;5.50;99.90;;;;;;4967351;28;20087;-74
2022/01/07 13:02:34;;;;;;;6.03;2.30;;;5.60;99.90;;;;;;4967832;28;20042;-74
2022/01/07 13:05:11;;;;;;;6.85;2.35;;;5.70;99.90;;;;;;4966794;28;20042;-74
2022/01/07 13:07:44;;;;;;;8.80;2.90;;;5.40;99.90;;;;;;4967023;28;20050;-74
2022/01/07 13:10:11;;;;;;;8.00;3.10;;;5.30;99.90;;;;;;4972640;28;20038;-74
2022/01/07 13:12:38;;;;;;;10.60;3.63;;;5.30;99.90;;;;;;4969589;28;20081;-74
2022/01/07 13:15:07;;;;;;;7.85;3.42;;;5.20;99.90;;;;;;4955960;28;20104;-74
2022/01/07 13:17:33;;;;;;;11.48;4.88;;;5.20;99.90;;;;;;4967379;28;20037;-74
2022/01/07 13:19:59;;;;;;;17.33;4.53;;;5.20;99.90;;;;;;4971007;28;20042;-74
2022/01/07 13:22:26;;;;;;;10.40;4.97;;;5.20;99.90;;;;;;4970952;28;20044;-74
2022/01/07 13:24:53;;;;;;;14.32;5.00;;;5.30;99.90;;;;;;4955360;28;20034;-74
2022/01/07 13:27:19;;;;;;;13.13;5.00;;;5.40;99.90;;;;;;4969641;28;20045;-74
2022/01/07 13:29:49;;;;;;;13.77;5.50;;;5.40;99.90;;;;;;4970724;28;20042;-74
2022/01/07 13:32:23;;;;;;;12.50;5.22;;;5.40;99.90;;;;;;4965507;28;20464;-74
2022/01/07 13:34:49;;;;;;;13.93;5.55;;;5.40;99.90;;;;;;4986798;28;20085;-74
2022/01/07 13:37:20;;;;;;;13.85;5.15;;;5.50;99.90;;;;;;4972760;28;20436;-74
2022/01/07 13:39:47;;;;;;;14.75;5.53;;;5.40;99.90;;;;;;4984393;28;20038;-75
2022/01/07 13:42:20;;;;;;;14.55;5.80;;;5.40;99.90;;;;;;4973583;28;20042;-74
2022/01/07 13:44:53;;;;;;;;;;;5.40;99.90;;;;;;4966483;28;20448;-75
2022/01/07 13:47:31;;;;;;;13.85;5.95;;;5.50;99.90;;;;;;4972248;28;19926;-75
2022/01/07 13:50:14;;;;;;;20.48;6.55;;;5.50;99.90;;;;;;4974790;28;20046;-74
2022/01/07 13:52:41;;;;;;;18.15;6.55;;;5.40;99.90;;;;;;4973524;28;20081;-75
2022/01/07 13:55:31;;;;;;;13.10;6.25;;;5.40;99.90;;;;;;4990210;28;20045;-75
2022/01/07 13:58:13;;;;;;;19.75;10.40;;;5.40;99.90;;;;;;4966232;28;20413;-75
2022/01/07 14:00:41;;;;;;;19.85;6.00;;;5.40;99.90;;;;;;4969104;28;20087;-75
2022/01/07 14:03:08;;;;;;;17.10;5.30;;;5.30;99.90;;;;;;4971540;28;20126;-75
2022/01/07 14:05:35;;;;;;;16.88;6.40;;;5.30;99.90;;;;;;4970539;28;20081;-74
2022/01/07 14:08:06;;;;;;;14.20;5.60;;;5.30;99.90;;;;;;4970911;28;20046;-75
2022/01/07 14:10:35;;;;;;;14.43;5.53;;;5.20;99.90;;;;;;4969301;28;20112;-74
2022/01/07 14:13:14;;;;;;;15.27;5.28;;;5.30;99.90;;;;;;4953785;28;20033;-74
2022/01/07 14:15:43;;;;;;;18.83;6.40;;;5.30;99.90;;;;;;4970625;28;20109;-75
2022/01/07 14:18:15;;;;;;;13.98;5.93;;;5.30;99.90;;;;;;4974801;28;20388;-76
2022/01/07 14:20:52;;;;;;;13.80;5.50;;;5.20;99.90;;;;;;4982766;28;20031;-75
2022/01/07 14:23:29;;;;;;;14.13;5.63;;;5.30;99.90;;;;;;4967977;28;20092;-75
2022/01/07 14:26:05;;;;;;;14.52;6.22;;;5.20;99.90;;;;;;4972704;28;20062;-75
2022/01/07 14:28:34;;;;;;;15.25;6.53;;;5.30;99.90;;;;;;4951043;28;20093;-75
2022/01/07 14:31:00;;;;;;;12.57;6.13;;;5.20;99.90;;;;;;4971510;28;20046;-75
2022/01/07 14:33:26;;;;;;;14.68;6.40;;;5.20;99.90;;;;;;4970235;28;20081;-75
2022/01/07 14:35:53;;;;;;;15.57;6.10;;;5.20;99.90;;;;;;4973994;28;20077;-76
2022/01/07 14:38:19;;;;;;;15.45;6.00;;;5.20;99.90;;;;;;4970581;28;20047;-76
2022/01/07 14:40:44;;;;;;;13.13;5.68;;;5.10;99.90;;;;;;4981284;28;20045;-75
2022/01/07 14:43:11;;;;;;;13.50;6.05;;;5.20;99.90;;;;;;4970395;28;20030;-76
2022/01/07 14:45:37;;;;;;;15.75;6.38;;;5.10;99.90;;;;;;4968818;28;20037;-76
2022/01/07 14:48:03;;;;;;;13.93;6.35;;;5.10;99.90;;;;;;4969864;28;20034;-76
2022/01/07 14:50:29;;;;;;;17.25;6.78;;;5.10;99.90;;;;;;4971510;28;20073;-76
2022/01/07 14:52:55;;;;;;;14.38;6.97;;;5.00;99.90;;;;;;4971064;28;20042;-76
2022/01/07 14:55:26;;;;;;;20.60;6.68;;;5.10;99.90;;;;;;4969396;28;20053;-76
2022/01/07 14:57:54;;;;;;;19.42;6.85;;;5.10;99.90;;;;;;4969589;28;20030;-75
2022/01/07 15:00:20;;;;;;;15.73;7.32;;;5.00;99.90;;;;;;4968952;28;20062;-75
2022/01/07 15:02:47;;;;;;;17.58;6.90;;;5.00;99.90;;;;;;4968854;28;20517;-75
2022/01/07 15:05:14;;;;;;;20.73;7.00;;;5.00;99.90;;;;;;4970673;28;20577;-74
2022/01/07 15:07:39;;;;;;;18.38;8.00;;;5.00;99.90;;;;;;4969126;28;20049;-75
2022/01/07 15:10:06;;;;;;;19.35;7.03;;;4.90;99.90;;;;;;4970565;28;20038;-75
2022/01/07 15:12:32;;;;;;;20.08;7.85;;;4.90;99.90;;;;;;4969492;28;20408;-75